createdAt,value
2018-11-26T00:00:47.859Z,21.05
2018-11-26T00:03:17.799Z,22.98
2018-11-26T00:05:47.751Z,21.82
2018-11-26T00:08:17.363Z,19.92
2018-11-26T00:11:59.867Z,17.98
2018-11-26T00:14:29.566Z,22.20
2018-11-26T00:17:01.335Z,21.68
2018-11-26T00:19:34.756Z,18.45
2018-11-26T00:22:04.667Z,21.45
2018-11-26T00:24:35.577Z,33.35
2018-11-26T00:27:06.195Z,24.40
2018-11-26T00:29:39.196Z,21.97
2018-11-26T00:32:08.875Z,29.32
2018-11-26T00:34:38.793Z,32.35
2018-11-26T00:37:10.482Z,25.62
2018-11-26T00:39:42.135Z,23.85
2018-11-26T00:42:13.987Z,24.98
2018-11-26T00:44:43.578Z,25.90
2018-11-26T00:47:13.328Z,21.77
2018-11-26T00:49:42.911Z,25.43
2018-11-26T00:52:12.447Z,22.90
2018-11-26T00:54:41.980Z,23.87
2018-11-26T00:57:11.852Z,22.05
2018-11-26T00:59:41.727Z,25.57
2018-11-26T01:02:12.560Z,25.50
2018-11-26T01:04:42.415Z,22.75
2018-11-26T01:07:12.268Z,23.12
2018-11-26T01:09:42.865Z,25.10
2018-11-26T01:12:12.363Z,21.27
2018-11-26T01:14:43.175Z,25.75
2018-11-26T01:17:13.124Z,26.23
2018-11-26T01:19:43.023Z,17.30
2018-11-26T01:22:15.961Z,18.60
2018-11-26T01:24:46.847Z,23.70
2018-11-26T01:27:16.747Z,30.37
2018-11-26T01:29:47.442Z,25.25
2018-11-26T01:32:17.268Z,18.30
2018-11-26T01:34:47.228Z,22.52
2018-11-26T01:37:20.880Z,19.25
2018-11-26T01:39:52.720Z,24.00
2018-11-26T01:42:22.801Z,20.68
2018-11-26T01:44:52.756Z,16.45
2018-11-26T01:47:25.920Z,16.37
2018-11-26T01:49:55.510Z,16.80
2018-11-26T01:52:25.316Z,17.95
2018-11-26T01:54:56.083Z,16.70
2018-11-26T01:57:25.607Z,14.00
2018-11-26T01:59:55.187Z,12.20
2018-11-26T02:02:24.920Z,11.22
2018-11-26T02:04:55.576Z,14.25
2018-11-26T02:07:25.403Z,17.32
2018-11-26T02:09:55.235Z,15.38
2018-11-26T02:12:33.180Z,18.23
2018-11-26T02:15:06.436Z,15.43
2018-11-26T02:17:41.335Z,13.50
2018-11-26T02:20:11.748Z,19.77
2018-11-26T02:22:41.615Z,16.85
2018-11-26T02:25:12.375Z,15.93
2018-11-26T02:27:42.195Z,22.85
2018-11-26T02:30:15.240Z,18.17
2018-11-26T02:32:45.988Z,16.67
2018-11-26T02:35:15.864Z,19.10
2018-11-26T02:37:49.400Z,19.00
2018-11-26T02:40:26.008Z,15.30
2018-11-26T02:42:57.895Z,19.73
2018-11-26T02:45:29.124Z,17.70
2018-11-26T02:48:00.056Z,16.42
2018-11-26T02:50:30.860Z,14.30
2018-11-26T02:53:00.688Z,17.25
2018-11-26T02:55:31.290Z,19.07
2018-11-26T02:58:03.133Z,16.52
2018-11-26T03:00:33.000Z,17.15
2018-11-26T03:03:03.860Z,17.42
2018-11-26T03:05:33.844Z,16.73
2018-11-26T03:08:07.112Z,20.52
2018-11-26T03:10:36.722Z,19.35
2018-11-26T03:13:07.558Z,18.80
2018-11-26T03:15:37.387Z,18.07
2018-11-26T03:18:09.204Z,21.95
2018-11-26T03:20:40.112Z,21.15
2018-11-26T03:23:09.772Z,18.32
2018-11-26T03:25:41.367Z,19.82
2018-11-26T03:28:14.959Z,20.80
2018-11-26T03:30:45.808Z,22.73
2018-11-26T03:33:15.727Z,15.50
2018-11-26T03:35:50.242Z,28.02
2018-11-26T03:38:39.842Z,21.82
2018-11-26T03:41:11.451Z,20.30
2018-11-26T03:43:42.284Z,29.02
2018-11-26T03:46:12.240Z,22.45
2018-11-26T03:48:42.222Z,23.83
2018-11-26T03:51:12.295Z,22.27
2018-11-26T03:53:42.960Z,27.95
2018-11-26T03:56:12.580Z,20.02
2018-11-26T03:58:42.728Z,26.02
2018-11-26T04:01:14.388Z,28.65
2018-11-26T04:03:45.002Z,24.77
2018-11-26T04:06:16.416Z,23.75
2018-11-26T04:08:47.216Z,26.68
2018-11-26T04:11:17.140Z,30.32
2018-11-26T04:13:54.624Z,28.73
2018-11-26T04:16:32.144Z,26.35
2018-11-26T04:21:39.880Z,30.30
2018-11-26T04:24:09.832Z,27.13
2018-11-26T04:26:41.820Z,30.25
2018-11-26T04:29:13.739Z,26.02
2018-11-26T04:31:43.464Z,22.87
2018-11-26T04:34:13.005Z,36.50
2018-11-26T04:36:42.825Z,29.15
2018-11-26T04:39:14.612Z,26.00
2018-11-26T04:41:46.231Z,23.12
2018-11-26T04:44:16.075Z,31.20
2018-11-26T04:46:47.296Z,29.70
2018-11-26T04:49:17.265Z,30.27
2018-11-26T04:51:46.920Z,24.25
2018-11-26T04:54:17.408Z,28.65
2018-11-26T04:56:50.757Z,27.27
2018-11-26T04:59:25.182Z,23.62
2018-11-26T05:01:55.836Z,27.87
2018-11-26T05:04:27.364Z,24.37
2018-11-26T05:06:56.960Z,27.98
2018-11-26T05:09:27.592Z,21.02
2018-11-26T05:11:59.374Z,28.00
2018-11-26T05:14:30.244Z,22.95
2018-11-26T05:17:00.121Z,29.90
2018-11-26T05:19:30.037Z,27.42
2018-11-26T05:21:59.905Z,23.50
2018-11-26T05:24:30.656Z,39.13
2018-11-26T05:27:00.632Z,33.75
2018-11-26T05:29:30.268Z,29.18
2018-11-26T05:32:00.424Z,28.85
2018-11-26T05:34:33.424Z,25.27
2018-11-26T05:37:05.976Z,22.30
2018-11-26T05:39:41.292Z,29.60
2018-11-26T05:42:11.848Z,22.80
2018-11-26T05:44:42.486Z,28.50
2018-11-26T05:47:12.312Z,29.82
2018-11-26T05:49:43.004Z,30.72
2018-11-26T05:52:13.852Z,30.88
2018-11-26T05:54:43.528Z,27.95
2018-11-26T05:57:16.728Z,31.82
2018-11-26T05:59:46.652Z,27.93
2018-11-26T06:02:17.440Z,26.60
2018-11-26T06:04:47.248Z,25.62
2018-11-26T06:07:17.874Z,26.80
2018-11-26T06:09:48.634Z,32.30
2018-11-26T06:12:20.256Z,30.02
2018-11-26T06:14:55.028Z,27.32
2018-11-26T06:17:24.868Z,30.35
2018-11-26T06:19:54.732Z,22.93
2018-11-26T06:22:25.589Z,28.70
2018-11-26T06:24:57.438Z,33.58
2018-11-26T06:27:28.260Z,25.62
2018-11-26T06:29:59.085Z,28.00
2018-11-26T06:32:31.971Z,39.85
2018-11-26T06:35:02.620Z,31.57
2018-11-26T06:37:35.904Z,26.17
2018-11-26T06:40:11.625Z,25.88
2018-11-26T06:42:41.496Z,29.92
2018-11-26T06:45:16.505Z,28.45
2018-11-26T06:47:46.352Z,24.98
2018-11-26T06:50:19.072Z,31.80
2018-11-26T06:52:50.883Z,35.33
2018-11-26T06:55:22.053Z,29.27
2018-11-26T06:57:55.216Z,30.17
2018-11-26T07:00:25.098Z,38.08
2018-11-26T07:02:55.961Z,28.20
2018-11-26T07:05:25.876Z,29.23
2018-11-26T07:07:55.801Z,29.30
2018-11-26T07:10:26.584Z,32.40
2018-11-26T07:12:56.197Z,33.83
2018-11-26T07:15:25.698Z,31.62
2018-11-26T07:17:55.216Z,30.85
2018-11-26T07:20:25.937Z,25.70
2018-11-26T07:22:55.568Z,32.65
2018-11-26T07:25:25.373Z,27.45
2018-11-26T07:27:55.636Z,26.90
2018-11-26T07:30:30.068Z,27.40
2018-11-26T07:33:02.247Z,29.07
2018-11-26T07:35:32.989Z,27.25
2018-11-26T07:38:02.604Z,29.60
2018-11-26T07:40:36.041Z,26.25
2018-11-26T07:43:07.933Z,26.35
2018-11-26T07:45:37.868Z,30.37
2018-11-26T07:48:09.632Z,30.15
2018-11-26T07:50:39.612Z,31.55
2018-11-26T07:53:12.033Z,25.45
2018-11-26T07:55:41.788Z,26.57
2018-11-26T07:58:17.056Z,31.30
2018-11-26T08:00:47.844Z,31.52
2018-11-26T08:03:18.455Z,29.52
2018-11-26T08:05:52.141Z,27.42
2018-11-26T08:08:21.877Z,24.12
2018-11-26T08:10:53.052Z,32.50
2018-11-26T08:13:28.676Z,28.10
2018-11-26T08:15:58.576Z,38.92
2018-11-26T08:18:31.697Z,27.65
2018-11-26T08:21:01.253Z,29.35
2018-11-26T08:23:30.753Z,25.30
2018-11-26T08:26:00.424Z,24.63
2018-11-26T08:28:29.913Z,26.42
2018-11-26T08:31:07.329Z,27.48
2018-11-26T08:33:38.000Z,24.85
2018-11-26T08:36:14.553Z,25.00
2018-11-26T08:38:52.012Z,21.57
2018-11-26T08:41:25.992Z,20.43
2018-11-26T08:43:57.828Z,23.42
2018-11-26T08:46:37.585Z,31.35
2018-11-26T08:49:11.249Z,23.57
2018-11-26T08:51:40.792Z,25.82
2018-11-26T08:54:11.489Z,23.00
2018-11-26T08:56:41.072Z,22.48
2018-11-26T08:59:13.677Z,21.90
2018-11-26T09:01:48.561Z,24.80
2018-11-26T09:04:19.980Z,19.17
2018-11-26T09:07:02.350Z,24.35
2018-11-26T09:09:38.681Z,25.43
2018-11-26T09:12:08.465Z,22.02
2018-11-26T09:14:39.296Z,21.82
2018-11-26T09:17:08.982Z,27.87
2018-11-26T09:19:38.703Z,21.45
2018-11-26T09:22:08.296Z,22.62
2018-11-26T09:24:41.821Z,20.80
2018-11-26T09:27:16.721Z,17.17
2018-11-26T09:29:47.504Z,18.85
2018-11-26T09:32:17.383Z,19.87
2018-11-26T09:35:01.195Z,17.52
2018-11-26T09:37:40.984Z,23.25
2018-11-26T09:40:16.260Z,19.30
2018-11-26T09:42:46.173Z,19.57
2018-11-26T09:45:18.884Z,19.70
2018-11-26T09:48:00.933Z,16.27
2018-11-26T09:50:32.571Z,21.10
2018-11-26T09:53:02.416Z,17.50
2018-11-26T09:55:34.240Z,23.67
2018-11-26T09:58:11.963Z,18.87
2018-11-26T10:00:41.453Z,23.32
2018-11-26T10:03:14.632Z,23.55
2018-11-26T10:05:50.102Z,18.95
2018-11-26T10:08:23.481Z,26.57
2018-11-26T10:10:54.340Z,22.80
2018-11-26T10:13:24.216Z,20.27
2018-11-26T10:15:55.076Z,26.42
2018-11-26T10:18:24.974Z,23.10
2018-11-26T10:20:56.544Z,24.75
2018-11-26T10:23:26.144Z,22.07
2018-11-26T10:26:02.013Z,22.55
2018-11-26T10:28:32.585Z,20.70
2018-11-26T10:31:02.321Z,26.05
2018-11-26T10:33:32.113Z,23.62
2018-11-26T10:36:06.657Z,23.75
2018-11-26T10:38:37.230Z,27.15
2018-11-26T10:41:06.789Z,21.20
2018-11-26T10:43:36.601Z,20.57
2018-11-26T10:46:07.229Z,23.05
2018-11-26T10:48:40.505Z,21.07
2018-11-26T10:51:26.964Z,17.87
2018-11-26T10:54:01.009Z,20.43
2018-11-26T10:56:32.781Z,19.07
2018-11-26T10:59:03.685Z,21.45
2018-11-26T11:01:44.429Z,21.48
2018-11-26T11:04:17.381Z,23.62
2018-11-26T11:06:51.924Z,24.07
2018-11-26T11:09:18.817Z,20.65
2018-11-26T11:11:48.695Z,23.65
2018-11-26T11:14:18.574Z,20.95
2018-11-26T11:16:58.437Z,19.60
2018-11-26T11:19:28.321Z,24.23
2018-11-26T11:22:01.645Z,24.85
2018-11-26T11:24:31.603Z,24.90
2018-11-26T11:27:06.748Z,21.25
2018-11-26T11:29:37.533Z,23.50
2018-11-26T11:32:09.396Z,23.25
2018-11-26T11:34:39.296Z,28.20
2018-11-26T11:37:10.117Z,21.97
2018-11-26T11:39:40.980Z,22.73
2018-11-26T11:42:14.240Z,20.88
2018-11-26T11:44:44.964Z,22.13
2018-11-26T11:47:15.616Z,24.32
2018-11-26T11:49:45.447Z,24.57
2018-11-26T11:52:15.432Z,22.62
2018-11-26T11:54:50.973Z,23.75
2018-11-26T11:57:20.811Z,23.55
2018-11-26T11:59:50.427Z,23.55
2018-11-26T12:02:21.152Z,27.80
2018-11-26T12:04:51.072Z,23.10
2018-11-26T12:07:20.948Z,24.02
2018-11-26T12:09:53.872Z,27.82
2018-11-26T12:12:23.788Z,27.25
2018-11-26T12:14:53.660Z,27.07
2018-11-26T12:17:23.500Z,28.27
2018-11-26T12:19:59.907Z,23.35
2018-11-26T12:22:30.473Z,26.57
2018-11-26T12:25:10.527Z,32.93
2018-11-26T12:27:40.127Z,25.12
2018-11-26T12:30:26.552Z,30.23
2018-11-26T12:33:01.405Z,30.17
2018-11-26T12:35:38.563Z,26.90
2018-11-26T12:38:09.112Z,24.85
2018-11-26T12:40:38.727Z,25.48
2018-11-26T12:43:08.533Z,25.37
2018-11-26T12:45:39.159Z,26.93
2018-11-26T12:48:09.979Z,28.30
2018-11-26T12:50:39.847Z,22.58
2018-11-26T12:53:16.011Z,23.22
2018-11-26T12:55:50.228Z,25.80
2018-11-26T12:58:26.571Z,28.55
2018-11-26T13:00:57.297Z,21.77
2018-11-26T13:03:26.991Z,26.37
2018-11-26T13:05:56.594Z,26.73
2018-11-26T13:08:26.224Z,19.85
2018-11-26T13:10:57.068Z,24.90
2018-11-26T13:13:32.168Z,26.30
2018-11-26T13:16:02.012Z,21.65
2018-11-26T13:18:32.592Z,21.20
2018-11-26T13:21:02.092Z,22.65
2018-11-26T13:23:32.865Z,24.43
2018-11-26T13:26:02.693Z,19.12
2018-11-26T13:28:33.380Z,24.75
2018-11-26T13:31:04.000Z,22.15
2018-11-26T13:33:35.740Z,22.10
2018-11-26T13:36:05.652Z,23.77
2018-11-26T13:38:36.468Z,26.42
2018-11-26T13:41:06.389Z,24.23
2018-11-26T13:43:37.096Z,19.20
2018-11-26T13:46:08.857Z,20.60
2018-11-26T13:48:39.669Z,20.80
2018-11-26T13:51:09.289Z,22.58
2018-11-26T13:53:38.753Z,20.35
2018-11-26T13:56:12.792Z,23.45
2018-11-26T13:58:46.289Z,20.68
2018-11-26T14:01:22.685Z,26.50
2018-11-26T14:03:53.691Z,26.82
2018-11-26T14:06:24.501Z,21.02
2018-11-26T14:08:55.409Z,22.90
2018-11-26T14:11:25.273Z,18.23
2018-11-26T14:13:55.897Z,24.30
2018-11-26T14:16:25.757Z,24.12
2018-11-26T14:18:56.678Z,30.65
2018-11-26T14:21:26.593Z,21.60
2018-11-26T14:23:57.544Z,17.02
2018-11-26T14:26:29.401Z,22.27
2018-11-26T14:28:59.289Z,18.80
2018-11-26T14:31:33.420Z,19.48
2018-11-26T14:34:05.485Z,18.70
2018-11-26T14:36:39.397Z,19.95
2018-11-26T14:39:09.989Z,19.52
2018-11-26T14:41:39.472Z,23.92
2018-11-26T14:44:12.585Z,20.32
2018-11-26T14:46:43.476Z,17.37
2018-11-26T14:49:14.141Z,18.23
2018-11-26T14:51:48.441Z,22.05
2018-11-26T14:54:21.970Z,24.65
2018-11-26T14:56:52.773Z,18.30
2018-11-26T14:59:22.637Z,25.90
2018-11-26T15:01:53.734Z,29.02
2018-11-26T15:04:23.349Z,25.88
2018-11-26T15:06:53.157Z,28.27
2018-11-26T15:09:23.969Z,30.08
2018-11-26T15:11:53.793Z,24.67
2018-11-26T15:14:23.612Z,29.80
2018-11-26T15:16:54.499Z,29.48
2018-11-26T15:19:24.353Z,25.15
2018-11-26T15:22:02.573Z,31.37
2018-11-26T15:24:33.381Z,27.20
2018-11-26T15:27:03.313Z,34.78
2018-11-26T15:29:33.069Z,29.30
2018-11-26T15:32:03.105Z,27.35
2018-11-26T15:34:36.105Z,31.33
2018-11-26T15:37:15.907Z,32.58
2018-11-26T15:39:45.701Z,39.48
2018-11-26T15:42:19.489Z,30.45
2018-11-26T15:44:50.081Z,32.70
2018-11-26T15:47:25.530Z,27.35
2018-11-26T15:50:05.141Z,35.40
2018-11-26T15:52:39.141Z,27.20
2018-11-26T15:55:10.450Z,32.25
2018-11-26T15:57:40.037Z,47.00
2018-11-26T16:00:15.517Z,32.45
2018-11-26T16:02:47.505Z,42.27
2018-11-26T16:05:25.917Z,32.40
2018-11-26T16:07:58.041Z,34.23
2018-11-26T16:10:27.865Z,39.60
2018-11-26T16:12:59.715Z,34.67
2018-11-26T16:15:37.341Z,31.70
2018-11-26T16:18:20.042Z,33.15
2018-11-26T16:20:51.002Z,37.08
2018-11-26T16:23:20.613Z,40.65
2018-11-26T16:25:52.376Z,32.00
2018-11-26T16:28:23.636Z,32.17
2018-11-26T16:30:56.701Z,31.27
2018-11-26T16:33:26.637Z,38.48
2018-11-26T16:35:57.529Z,39.48
2018-11-26T16:38:27.581Z,33.15
2018-11-26T16:40:57.573Z,38.08
2018-11-26T16:43:29.410Z,33.45
2018-11-26T16:46:00.190Z,42.27
2018-11-26T16:48:37.157Z,39.45
2018-11-26T16:51:07.989Z,42.62
2018-11-26T16:53:38.593Z,32.42
2018-11-26T16:56:09.310Z,45.38
2018-11-26T16:58:38.974Z,35.13
2018-11-26T17:01:08.598Z,37.23
2018-11-26T17:03:38.072Z,41.18
2018-11-26T17:06:07.833Z,41.55
2018-11-26T17:08:37.529Z,38.25
2018-11-26T17:11:08.330Z,44.60
2018-11-26T17:13:39.130Z,43.02
2018-11-26T17:16:13.646Z,40.33
2018-11-26T17:18:49.798Z,36.03
2018-11-26T17:21:20.685Z,48.92
2018-11-26T17:23:50.597Z,46.25
2018-11-26T17:26:20.545Z,50.08
2018-11-26T17:28:50.445Z,41.30
2018-11-26T17:31:20.326Z,44.85
2018-11-26T17:33:50.138Z,44.65
2018-11-26T17:36:19.988Z,52.98
2018-11-26T17:38:53.289Z,41.25
2018-11-26T17:41:23.102Z,56.35
2018-11-26T17:43:57.718Z,43.00
2018-11-26T17:46:29.590Z,39.83
2018-11-26T17:49:01.426Z,37.60
2018-11-26T17:51:37.521Z,44.73
2018-11-26T17:54:07.146Z,48.00
2018-11-26T17:56:36.921Z,47.70
2018-11-26T17:59:14.937Z,54.27
2018-11-26T18:01:50.850Z,43.33
2018-11-26T18:04:20.710Z,49.48
2018-11-26T18:06:50.514Z,43.78
2018-11-26T18:09:22.888Z,37.93
2018-11-26T18:11:51.794Z,44.88
2018-11-26T18:14:24.853Z,48.08
2018-11-26T18:16:57.506Z,38.92
2018-11-26T18:19:27.714Z,51.33
2018-11-26T18:21:57.730Z,48.83
2018-11-26T18:24:28.318Z,47.95
2018-11-26T18:26:58.262Z,46.25
2018-11-26T18:29:29.166Z,48.75
2018-11-26T18:31:59.089Z,51.55
2018-11-26T18:34:30.989Z,43.50
2018-11-26T18:37:00.637Z,45.98
2018-11-26T18:39:31.486Z,52.45
2018-11-26T18:42:04.477Z,49.63
2018-11-26T18:44:39.171Z,42.90
2018-11-26T18:47:09.150Z,43.75
2018-11-26T18:49:42.977Z,37.13
2018-11-26T18:52:16.898Z,48.55
2018-11-26T18:54:47.522Z,37.98
2018-11-26T18:57:23.046Z,40.83
2018-11-26T18:59:58.054Z,40.75
2018-11-26T19:02:33.620Z,60.95
2018-11-26T19:05:03.342Z,46.63
2018-11-26T19:07:37.610Z,38.25
2018-11-26T19:10:12.925Z,42.65
2018-11-26T19:12:50.570Z,38.17
2018-11-26T19:15:25.990Z,42.88
2018-11-26T19:17:59.585Z,42.43
2018-11-26T19:20:30.087Z,44.03
2018-11-26T19:22:59.813Z,42.27
2018-11-26T19:25:32.591Z,49.35
2018-11-26T19:28:03.314Z,44.23
2018-11-26T19:30:33.622Z,41.60
2018-11-26T19:33:05.594Z,44.58
2018-11-26T19:35:39.330Z,41.00
2018-11-26T19:38:13.858Z,37.13
2018-11-26T19:40:44.564Z,43.00
2018-11-26T19:43:16.578Z,52.62
2018-11-26T19:45:46.761Z,36.95
2018-11-26T19:48:17.117Z,43.85
2018-11-26T19:50:47.445Z,38.63
2018-11-26T19:53:21.289Z,36.77
2018-11-26T19:55:56.454Z,39.25
2018-11-26T19:58:30.545Z,43.70
2018-11-26T20:01:02.177Z,39.60
2018-11-26T20:03:36.321Z,42.27
2018-11-26T20:06:12.721Z,38.75
2018-11-26T20:08:44.253Z,41.10
2018-11-26T20:11:17.557Z,38.78
2018-11-26T20:13:47.862Z,40.63
2018-11-26T20:16:38.461Z,44.35
2018-11-26T20:19:09.401Z,34.78
2018-11-26T20:21:39.237Z,39.48
2018-11-26T20:24:15.425Z,37.00
2018-11-26T20:26:46.445Z,41.48
2018-11-26T20:29:18.453Z,40.00
2018-11-26T20:31:50.133Z,40.70
2018-11-26T20:34:26.641Z,36.13
2018-11-26T20:37:07.993Z,42.08
2018-11-26T20:39:43.157Z,46.10
2018-11-26T20:44:59.343Z,48.10
2018-11-26T20:47:34.570Z,35.10
2018-11-26T20:50:05.529Z,38.65
2018-11-26T20:52:35.677Z,38.50
2018-11-26T20:55:12.781Z,36.13
2018-11-26T20:57:51.834Z,36.77
2018-11-26T21:00:37.621Z,42.50
2018-11-26T21:05:54.838Z,42.00
2018-11-26T21:08:27.250Z,39.60
2018-11-26T21:11:03.384Z,42.08
2018-11-26T21:13:38.353Z,35.30
2018-11-26T21:16:11.647Z,31.60
2018-11-26T21:18:47.898Z,38.50
2018-11-26T21:23:58.502Z,30.45
2018-11-26T21:26:35.857Z,35.85
2018-11-26T21:31:43.900Z,36.83
2018-11-26T21:34:13.625Z,32.65
2018-11-26T21:36:50.075Z,34.63
2018-11-26T21:39:22.227Z,26.62
2018-11-26T21:41:56.450Z,36.17
2018-11-26T21:44:28.446Z,36.83
2018-11-26T21:46:59.593Z,37.55
2018-11-26T21:49:40.058Z,36.55
2018-11-26T21:52:24.454Z,25.35
2018-11-26T21:57:48.449Z,40.10
2018-11-26T22:00:31.054Z,38.75
2018-11-26T22:03:06.574Z,31.82
2018-11-26T22:05:38.885Z,34.90
2018-11-26T22:08:12.641Z,33.50
2018-11-26T22:10:52.234Z,31.60
2018-11-26T22:13:26.246Z,35.00
2018-11-26T22:18:56.302Z,35.28
2018-11-26T22:21:41.573Z,27.50
2018-11-26T22:24:16.265Z,30.15
2018-11-26T22:26:57.241Z,32.35
2018-11-26T22:32:14.842Z,33.73
2018-11-26T22:34:50.633Z,28.10
2018-11-26T22:37:31.805Z,34.53
2018-11-26T22:42:55.398Z,35.08
2018-11-26T22:45:43.538Z,39.98
2018-11-26T22:48:24.805Z,43.95
2018-11-26T22:50:58.017Z,48.73
2018-11-26T22:56:11.809Z,39.75
2018-11-26T22:58:50.205Z,36.58
2018-11-26T23:01:25.001Z,42.10
2018-11-26T23:04:02.500Z,46.63
2018-11-26T23:06:39.110Z,33.98
2018-11-26T23:09:11.373Z,41.45
2018-11-26T23:11:46.573Z,36.90
2018-11-26T23:14:22.119Z,35.52
2018-11-26T23:16:55.441Z,43.25
2018-11-26T23:19:30.417Z,34.18
2018-11-26T23:22:07.018Z,50.60
2018-11-26T23:24:43.441Z,36.95
2018-11-26T23:27:22.565Z,36.63
2018-11-26T23:29:59.717Z,39.08
2018-11-26T23:32:35.906Z,35.33
2018-11-26T23:35:10.709Z,34.78
2018-11-26T23:37:47.233Z,35.48
2018-11-26T23:40:23.553Z,40.80
2018-11-26T23:42:57.777Z,40.58
2018-11-26T23:45:29.047Z,31.45
2018-11-26T23:47:58.765Z,34.53
2018-11-26T23:50:28.893Z,30.62
2018-11-26T23:53:06.010Z,38.85
2018-11-26T23:55:36.885Z,31.15
2018-11-26T23:58:09.446Z,39.45
